createdAt,value
2023-03-15T00:15:40.353Z,929.4
2023-03-15T00:30:42.283Z,931
2023-03-15T01:00:46.434Z,931
2023-03-15T01:15:42.514Z,930.8
2023-03-15T01:30:45.134Z,933
2023-03-15T01:45:43.730Z,933.6
2023-03-15T02:00:46.191Z,934
2023-03-15T02:01:28.439Z,934
2023-03-15T02:15:47.932Z,934.2
2023-03-15T02:30:48.310Z,932.3
2023-03-15T02:45:50.782Z,932.3
2023-03-15T03:00:46.679Z,931.3
2023-03-15T03:15:46.727Z,931.7
2023-03-15T03:30:48.598Z,932.1
2023-03-15T03:45:49.539Z,931.7
2023-03-15T04:00:50.824Z,932.8
2023-03-15T04:15:50.645Z,931.8
2023-03-15T04:30:52.074Z,932.9
2023-03-15T04:46:05.051Z,932.9
2023-03-15T05:01:17.866Z,933.2
2023-03-15T05:15:52.276Z,933.8
2023-03-15T05:28:31.389Z,933.8
2023-03-15T05:43:48.699Z,934.1
2023-03-15T09:14:02.385Z,934.1
2023-03-15T09:43:40.786Z,932.6
2023-03-15T09:58:39.137Z,932.8
2023-03-15T10:13:40.390Z,932.8
2023-03-15T10:28:40.222Z,932.8
2023-03-15T10:43:43.407Z,932.8
2023-03-15T10:58:41.477Z,932.7
2023-03-15T11:13:42.808Z,932.6
2023-03-15T11:28:42.969Z,932.5
2023-03-15T11:44:08.248Z,932.5
2023-03-15T11:58:54.832Z,932.5
2023-03-15T12:28:44.703Z,932.1
2023-03-15T12:43:47.475Z,932.1
2023-03-15T12:58:47.693Z,932.1
2023-03-15T13:13:47.560Z,932.1
2023-03-15T13:28:46.325Z,932.2
2023-03-15T13:43:46.932Z,932.3
2023-03-15T13:58:47.507Z,932.1
2023-03-15T14:13:48.936Z,932.1
2023-03-15T15:44:24.294Z,932.1
2023-03-15T16:13:56.685Z,932
2023-03-15T16:44:22.981Z,932.4
2023-03-15T16:58:55.419Z,932.9
2023-03-15T17:13:59.678Z,932.9
2023-03-15T17:28:56.383Z,933.2
2023-03-15T17:44:09.363Z,933.2
2023-03-15T17:58:57.329Z,933.5
2023-03-15T18:14:08.950Z,933.5
2023-03-15T18:29:06.799Z,933.7
2023-03-15T18:43:58.883Z,933.8
2023-03-15T18:59:01.920Z,933.8
2023-03-15T19:14:00.832Z,933.9
2023-03-15T19:29:17.726Z,934
2023-03-15T20:14:03.800Z,933.9
2023-03-15T20:29:09.614Z,934.3
2023-03-15T20:44:16.371Z,934.5
2023-03-15T20:59:03.589Z,934.7
2023-03-15T21:14:32.209Z,934.7
2023-03-15T21:29:10.490Z,934.8
2023-03-15T21:59:08.295Z,934.8
2023-03-15T22:14:08.526Z,934.8
2023-03-15T22:29:19.296Z,934.8
2023-03-15T22:59:08.591Z,934.7
2023-03-15T23:41:01.639Z,935.1
2023-03-15T23:45:41.019Z,935.1
